Time;durP1;ratioP1;P1;durP2;ratioP2;P2;SDS_P1;SDS_P2;PMS_P1;PMS_P2;Temp;Humidity;BMP_temperature;BMP_pressure;BME280_temperature;BME280_humidity;BME280_pressure;Samples;Min_cycle;Max_cycle;Signal;HPM_P1;HPM_P2
2022/08/24 00:02:08;;;;;;;5.13;4.67;;;19.80;73.80;;;;;;6249288;23;20172;-48
2022/08/24 00:04:34;;;;;;;5.67;5.17;;;19.80;74.40;;;;;;6249084;23;20445;-47
2022/08/24 00:07:01;;;;;;;6.13;4.70;;;19.80;74.90;;;;;;6249236;23;20133;-47
2022/08/24 00:09:27;;;;;;;5.63;5.13;;;19.80;75.30;;;;;;6249194;23;20207;-48
2022/08/24 00:11:53;;;;;;;5.10;4.63;;;19.70;75.60;;;;;;6247751;23;20367;-47
2022/08/24 00:14:19;;;;;;;5.47;5.00;;;19.70;75.90;;;;;;6249292;23;20392;-47
2022/08/24 00:16:46;;;;;;;5.23;4.73;;;19.70;76.10;;;;;;6246820;23;20136;-50
2022/08/24 00:19:12;;;;;;;5.33;4.93;;;19.60;76.20;;;;;;6247538;23;20162;-48
2022/08/24 00:21:37;;;;;;;5.40;4.90;;;19.60;76.50;;;;;;6248103;23;20574;-48
2022/08/24 00:24:04;;;;;;;5.87;5.37;;;19.60;76.70;;;;;;6248831;23;20157;-49
2022/08/24 00:26:29;;;;;;;5.37;4.90;;;19.60;76.90;;;;;;6248739;23;20445;-48
2022/08/24 00:28:57;;;;;;;6.00;5.03;;;19.60;77.10;;;;;;6248584;23;20633;-49
2022/08/24 00:31:23;;;;;;;5.60;5.10;;;19.60;77.30;;;;;;6248819;23;20148;-47
2022/08/24 00:33:49;;;;;;;5.37;4.87;;;19.60;77.60;;;;;;6248658;23;20847;-48
2022/08/24 00:36:15;;;;;;;5.53;5.03;;;19.50;77.60;;;;;;6248420;23;20756;-48
2022/08/24 00:38:41;;;;;;;5.10;4.60;;;19.50;77.80;;;;;;6248312;23;20410;-46
2022/08/24 00:41:07;;;;;;;5.90;5.50;;;19.50;78.00;;;;;;6248262;23;20598;-48
2022/08/24 00:43:33;;;;;;;5.10;4.60;;;19.50;78.30;;;;;;6248878;23;20151;-50
2022/08/24 00:46:13;;;;;;;5.80;5.00;;;19.50;78.60;;;;;;6248805;23;20420;-49
2022/08/24 00:48:42;;;;;;;5.37;4.87;;;19.40;78.70;;;;;;6248344;23;20523;-47
2022/08/24 00:51:16;;;;;;;5.57;5.10;;;19.40;79.00;;;;;;6247357;23;20394;-48
2022/08/24 00:53:54;;;;;;;5.70;5.10;;;19.40;79.20;;;;;;6246967;23;20387;-48
2022/08/24 00:56:32;;;;;;;7.03;4.83;;;19.40;79.40;;;;;;6249383;23;20383;-48
2022/08/24 00:59:04;;;;;;;5.33;4.93;;;19.40;79.50;;;;;;6247397;23;20390;-48
2022/08/24 01:01:33;;;;;;;4.90;4.50;;;19.30;79.60;;;;;;6222283;23;20427;-48
2022/08/24 01:03:58;;;;;;;4.70;4.30;;;19.30;79.80;;;;;;6249767;23;20672;-48
2022/08/24 01:06:24;;;;;;;5.40;4.97;;;19.30;79.90;;;;;;6249212;23;20397;-49
2022/08/24 01:08:50;;;;;;;5.60;4.50;;;19.30;80.20;;;;;;6250152;22;20266;-51
2022/08/24 01:11:19;;;;;;;5.10;4.70;;;19.30;80.30;;;;;;6251294;23;20474;-46
2022/08/24 01:13:48;;;;;;;5.43;5.00;;;19.20;80.40;;;;;;6249922;23;20375;-48
2022/08/24 01:18:48;;;;;;;4.90;4.53;;;19.20;80.70;;;;;;6250254;23;20386;-49
2022/08/24 01:19:01;;;;;;;5.20;4.80;;;19.20;81.00;;;;;;6248382;23;20426;-49
2022/08/24 01:21:43;;;;;;;5.40;5.00;;;19.20;81.10;;;;;;6250427;23;20418;-48
2022/08/24 01:24:11;;;;;;;5.00;4.60;;;19.10;82.00;;;;;;6249023;23;20343;-48
2022/08/24 01:26:39;;;;;;;5.30;4.90;;;19.10;81.50;;;;;;6224113;23;20416;-49
2022/08/24 01:29:20;;;;;;;7.17;5.60;;;19.10;81.80;;;;;;6250877;23;20358;-47
2022/08/24 01:31:45;;;;;;;4.97;4.57;;;19.00;81.90;;;;;;6249357;23;20460;-48
2022/08/24 01:34:12;;;;;;;5.27;4.87;;;19.10;82.20;;;;;;6250553;23;20424;-48
2022/08/24 01:36:47;;;;;;;5.17;4.67;;;19.00;82.20;;;;;;6250436;23;20167;-48
2022/08/24 01:39:20;;;;;;;5.80;4.90;;;19.00;82.50;;;;;;6250604;23;20423;-48
2022/08/24 01:41:46;;;;;;;5.20;4.80;;;19.00;82.60;;;;;;6249203;23;20735;-47
2022/08/24 01:44:12;;;;;;;5.30;4.83;;;19.00;82.80;;;;;;6250726;23;20744;-47
2022/08/24 01:46:45;;;;;;;5.47;4.97;;;19.00;82.90;;;;;;6250595;23;20387;-47
2022/08/24 01:49:11;;;;;;;6.20;5.70;;;19.00;83.10;;;;;;6250413;23;20673;-48
2022/08/24 01:51:37;;;;;;;5.70;5.20;;;18.90;83.30;;;;;;6250200;23;20453;-51
2022/08/24 01:57:25;;;;;;;5.37;5.00;;;18.90;83.60;;;;;;6249835;23;20475;-50
2022/08/24 01:59:51;;;;;;;6.20;5.57;;;18.80;83.50;;;;;;6249344;23;20393;-47
2022/08/24 02:02:22;;;;;;;5.00;4.60;;;18.80;83.70;;;;;;6249100;23;20678;-49
2022/08/24 02:04:48;;;;;;;5.67;5.27;;;18.80;83.80;;;;;;6249866;23;20359;-49
2022/08/24 02:07:13;;;;;;;5.53;5.13;;;18.80;84.00;;;;;;6250179;23;20372;-48
2022/08/24 02:09:39;;;;;;;5.63;5.23;;;18.80;84.10;;;;;;6250355;23;20418;-47
2022/08/24 02:12:06;;;;;;;5.50;5.10;;;18.80;84.30;;;;;;6249589;23;20214;-47
2022/08/24 02:14:32;;;;;;;5.63;5.13;;;18.80;84.60;;;;;;6248007;23;20367;-47
2022/08/24 02:16:57;;;;;;;5.70;5.20;;;18.80;84.70;;;;;;6249711;23;20356;-50
2022/08/24 02:19:24;;;;;;;5.63;5.13;;;18.70;84.60;;;;;;6250748;23;20494;-47
2022/08/24 02:21:50;;;;;;;5.30;4.90;;;18.70;84.90;;;;;;6249576;23;20162;-48
2022/08/24 02:24:15;;;;;;;5.50;5.10;;;18.70;85.00;;;;;;6249377;23;20421;-49
2022/08/24 02:26:41;;;;;;;5.50;5.00;;;18.60;85.00;;;;;;6249535;23;20360;-48
2022/08/24 02:29:07;;;;;;;5.13;4.73;;;18.70;85.20;;;;;;6249094;23;20152;-48
2022/08/24 02:31:33;;;;;;;7.27;5.80;;;18.60;85.20;;;;;;6249368;23;20148;-48
2022/08/24 02:33:58;;;;;;;5.63;5.13;;;18.60;85.30;;;;;;6249331;23;20658;-47
2022/08/24 02:36:25;;;;;;;5.37;4.90;;;18.60;85.50;;;;;;6249156;23;20353;-49
2022/08/24 02:38:50;;;;;;;6.47;5.30;;;18.60;85.50;;;;;;6249267;23;20154;-48
2022/08/24 02:41:16;;;;;;;5.80;5.40;;;18.60;85.60;;;;;;6248828;23;20841;-48
2022/08/24 02:43:42;;;;;;;6.40;5.90;;;18.50;85.70;;;;;;6248982;23;20153;-47
2022/08/24 02:46:16;;;;;;;5.60;5.07;;;18.50;85.80;;;;;;6248314;23;20641;-48
2022/08/24 02:48:42;;;;;;;5.00;4.70;;;18.50;85.90;;;;;;6248068;23;20168;-47
2022/08/24 02:51:07;;;;;;;5.87;5.37;;;18.50;86.10;;;;;;6247571;23;20782;-48
2022/08/24 02:53:33;;;;;;;5.53;5.13;;;18.50;86.20;;;;;;6221010;23;20159;-48
2022/08/24 02:55:59;;;;;;;5.77;5.27;;;18.40;86.10;;;;;;6246160;23;20151;-46
2022/08/24 02:58:24;;;;;;;6.33;5.83;;;18.40;86.20;;;;;;6246843;23;20191;-47
2022/08/24 03:00:50;;;;;;;5.33;4.93;;;18.40;86.40;;;;;;6248666;23;20525;-50
2022/08/24 03:03:16;;;;;;;5.40;4.97;;;18.40;86.40;;;;;;6248601;23;20229;-49
2022/08/24 03:05:42;;;;;;;6.03;5.53;;;18.40;86.40;;;;;;6248830;23;20135;-48
2022/08/24 03:08:07;;;;;;;5.73;5.17;;;18.40;86.50;;;;;;6249139;23;20385;-48
2022/08/24 03:10:33;;;;;;;5.83;5.43;;;18.40;86.50;;;;;;6247164;23;20361;-48
2022/08/24 03:13:00;;;;;;;5.57;5.17;;;18.30;86.60;;;;;;6247388;23;20498;-47
2022/08/24 03:15:26;;;;;;;5.47;5.07;;;18.40;86.70;;;;;;6248394;23;20183;-50
2022/08/24 03:17:51;;;;;;;6.50;5.90;;;18.30;86.80;;;;;;6249234;23;20674;-47
2022/08/24 03:20:20;;;;;;;6.20;5.70;;;18.30;86.90;;;;;;6247629;23;20370;-48
2022/08/24 03:22:45;;;;;;;5.70;5.30;;;18.20;86.90;;;;;;6248428;23;20614;-47
2022/08/24 03:25:13;;;;;;;5.03;4.53;;;18.20;87.00;;;;;;6245794;23;20349;-48
2022/08/24 03:27:39;;;;;;;6.10;4.83;;;18.20;87.20;;;;;;6246738;23;20150;-50
2022/08/24 03:30:06;;;;;;;5.80;5.40;;;18.20;87.30;;;;;;6244578;23;20362;-48
2022/08/24 03:32:32;;;;;;;6.27;5.77;;;18.20;87.50;;;;;;6246591;23;20398;-48
2022/08/24 03:34:58;;;;;;;5.93;5.53;;;18.20;87.60;;;;;;6247201;23;20411;-48
2022/08/24 03:37:24;;;;;;;5.63;5.13;;;18.10;87.80;;;;;;6246584;23;20395;-48
2022/08/24 03:39:50;;;;;;;6.20;5.60;;;18.10;87.70;;;;;;6245790;23;20395;-49
2022/08/24 03:42:16;;;;;;;6.17;5.57;;;18.10;87.80;;;;;;6244335;23;20728;-50
2022/08/24 03:44:41;;;;;;;6.00;5.43;;;18.10;87.80;;;;;;6243792;23;20153;-46
2022/08/24 03:47:12;;;;;;;6.03;5.60;;;18.10;88.00;;;;;;6243204;23;20770;-47
2022/08/24 03:49:37;;;;;;;6.27;5.53;;;18.10;88.10;;;;;;6242863;23;20495;-49
2022/08/24 03:52:05;;;;;;;6.30;5.80;;;18.10;88.00;;;;;;6241982;22;20385;-48
2022/08/24 03:54:31;;;;;;;5.93;5.50;;;18.10;88.10;;;;;;6245145;23;20134;-49
2022/08/24 03:56:57;;;;;;;6.43;5.93;;;18.10;88.00;;;;;;6246769;23;20509;-47
2022/08/24 03:59:23;;;;;;;6.00;5.60;;;18.10;88.00;;;;;;6246273;23;20396;-49
2022/08/24 04:01:49;;;;;;;6.33;5.83;;;18.10;88.10;;;;;;6247108;23;20415;-49
2022/08/24 04:04:15;;;;;;;5.83;5.33;;;18.00;88.00;;;;;;6246771;23;20396;-48
2022/08/24 04:06:43;;;;;;;5.83;5.33;;;18.00;87.90;;;;;;6247265;23;20142;-48
2022/08/24 04:09:09;;;;;;;5.60;5.20;;;18.00;87.90;;;;;;6245949;23;20187;-50
2022/08/24 04:11:35;;;;;;;5.97;5.43;;;18.00;87.80;;;;;;6244560;23;20364;-50
2022/08/24 04:14:00;;;;;;;5.63;5.23;;;18.00;87.80;;;;;;6245370;23;20389;-48
2022/08/24 04:16:28;;;;;;;6.03;5.53;;;18.00;87.80;;;;;;6245540;23;20130;-47
2022/08/24 04:18:55;;;;;;;6.10;5.60;;;18.00;88.00;;;;;;6245275;23;20519;-48
2022/08/24 04:21:25;;;;;;;7.00;6.40;;;18.00;88.10;;;;;;6244395;23;20414;-50
2022/08/24 04:23:51;;;;;;;6.17;5.57;;;17.90;88.00;;;;;;6244304;23;20380;-49
2022/08/24 04:26:18;;;;;;;5.80;5.30;;;17.90;88.10;;;;;;6244903;23;20363;-47
2022/08/24 04:28:43;;;;;;;5.77;5.30;;;17.90;88.10;;;;;;6245247;23;20387;-49
2022/08/24 04:31:09;;;;;;;10.10;6.33;;;17.90;88.10;;;;;;6243444;23;20464;-49
2022/08/24 04:33:35;;;;;;;5.83;5.43;;;18.00;88.30;;;;;;6242978;23;20275;-49
2022/08/24 04:36:04;;;;;;;6.67;5.90;;;18.00;88.00;;;;;;6245725;23;20202;-50
2022/08/24 04:38:30;;;;;;;6.73;6.10;;;18.10;87.80;;;;;;6249866;23;20705;-49
2022/08/24 04:40:56;;;;;;;6.07;5.57;;;18.20;87.50;;;;;;6250407;23;20472;-50
2022/08/24 04:43:22;;;;;;;5.50;5.00;;;18.30;87.30;;;;;;6249560;23;20391;-50
2022/08/24 04:45:49;;;;;;;6.37;5.87;;;18.30;86.90;;;;;;6251472;23;20346;-49
2022/08/24 04:48:14;;;;;;;6.30;5.80;;;18.30;86.50;;;;;;6249294;23;20506;-49
2022/08/24 04:50:42;;;;;;;5.90;5.33;;;18.40;86.40;;;;;;6251711;23;20407;-51
2022/08/24 04:53:09;;;;;;;6.40;5.80;;;18.50;86.40;;;;;;6251411;23;20135;-50
2022/08/24 04:55:42;;;;;;;6.77;6.10;;;18.50;86.20;;;;;;6250803;23;20687;-50
2022/08/24 04:58:08;;;;;;;8.73;5.30;;;18.50;86.00;;;;;;6248522;23;20838;-46
2022/08/24 05:00:34;;;;;;;8.27;5.90;;;18.50;85.80;;;;;;6247503;23;20401;-52
2022/08/24 05:03:00;;;;;;;6.20;5.70;;;18.50;85.70;;;;;;6246081;23;20367;-49
2022/08/24 05:05:25;;;;;;;7.90;6.30;;;18.60;85.70;;;;;;6247937;23;20429;-51
2022/08/24 05:07:51;;;;;;;5.50;5.10;;;18.60;85.70;;;;;;6246495;23;20147;-47
2022/08/24 05:10:16;;;;;;;6.60;6.00;;;18.60;85.60;;;;;;6247143;23;20210;-49
2022/08/24 05:12:43;;;;;;;7.33;6.63;;;18.60;85.50;;;;;;6247107;23;20150;-53
2022/08/24 05:15:08;;;;;;;7.63;5.30;;;18.70;85.60;;;;;;6248037;23;20211;-50
2022/08/24 05:17:34;;;;;;;6.30;5.70;;;18.70;85.50;;;;;;6247265;23;20355;-48
2022/08/24 05:20:00;;;;;;;7.67;6.13;;;18.70;85.30;;;;;;6244300;23;20443;-47
2022/08/24 05:22:26;;;;;;;6.93;6.43;;;18.80;85.30;;;;;;6245379;23;20171;-53
2022/08/24 05:24:51;;;;;;;6.00;5.50;;;18.90;85.20;;;;;;6244819;23;20459;-51
2022/08/24 05:27:17;;;;;;;6.40;5.80;;;18.90;84.90;;;;;;6245676;23;20419;-47
2022/08/24 05:29:44;;;;;;;5.80;5.40;;;18.90;84.70;;;;;;6245052;23;20427;-50
2022/08/24 05:32:10;;;;;;;5.83;5.43;;;19.00;84.60;;;;;;6243584;23;20138;-51
2022/08/24 05:34:36;;;;;;;5.63;5.23;;;19.10;84.20;;;;;;6244945;23;20816;-50
2022/08/24 05:37:02;;;;;;;5.93;5.53;;;19.10;83.90;;;;;;6246467;23;20372;-50
2022/08/24 05:39:29;;;;;;;6.20;5.70;;;19.20;83.70;;;;;;6246542;23;20807;-52
2022/08/24 05:41:55;;;;;;;7.17;6.10;;;19.20;83.50;;;;;;6248654;23;20491;-52
2022/08/24 05:44:23;;;;;;;6.20;5.73;;;19.30;83.40;;;;;;6247334;23;20396;-54
2022/08/24 05:46:48;;;;;;;5.97;5.47;;;19.30;83.20;;;;;;6246375;23;20199;-51
2022/08/24 05:49:14;;;;;;;6.73;5.27;;;19.30;82.90;;;;;;6247077;23;20389;-50
2022/08/24 05:51:41;;;;;;;6.80;5.97;;;19.40;82.80;;;;;;6246840;23;20167;-51
2022/08/24 05:54:08;;;;;;;6.90;6.17;;;19.50;82.60;;;;;;6247745;23;20400;-52
2022/08/24 05:56:34;;;;;;;7.87;7.00;;;19.50;82.30;;;;;;6247260;23;20666;-52
2022/08/24 05:59:00;;;;;;;6.47;5.87;;;19.60;82.10;;;;;;6247494;23;20392;-49
2022/08/24 06:01:26;;;;;;;6.50;5.57;;;19.70;81.80;;;;;;6245027;23;20500;-49
2022/08/24 06:03:54;;;;;;;8.53;5.60;;;19.80;81.70;;;;;;6248843;23;20387;-50
2022/08/24 06:06:21;;;;;;;9.30;6.03;;;19.80;81.50;;;;;;6246969;23;20362;-54
2022/08/24 06:08:50;;;;;;;9.83;6.13;;;19.80;81.30;;;;;;6245384;23;20386;-50
2022/08/24 06:11:24;;;;;;;6.90;6.30;;;19.90;81.10;;;;;;6248765;22;20645;-49
2022/08/24 06:13:56;;;;;;;6.10;5.60;;;20.00;81.00;;;;;;6244661;23;20432;-50
2022/08/24 06:16:22;;;;;;;6.70;6.10;;;20.00;80.80;;;;;;6247373;23;20656;-54
2022/08/24 06:18:49;;;;;;;6.30;5.70;;;20.10;80.80;;;;;;6220821;23;20474;-50
2022/08/24 06:21:17;;;;;;;6.77;6.10;;;20.10;80.50;;;;;;6245598;23;20847;-50
2022/08/24 06:23:43;;;;;;;6.00;5.50;;;20.20;80.30;;;;;;6246878;23;20378;-48
2022/08/24 06:28:55;;;;;;;7.50;6.70;;;20.40;79.60;;;;;;6244916;23;20165;-49
2022/08/24 06:31:23;;;;;;;6.60;5.90;;;20.50;79.10;;;;;;6247050;23;20445;-50
2022/08/24 06:33:49;;;;;;;6.63;6.03;;;20.70;78.80;;;;;;6246369;23;20447;-48
2022/08/24 06:36:15;;;;;;;8.20;6.30;;;20.80;78.40;;;;;;6242245;23;20401;-51
2022/08/24 06:38:42;;;;;;;7.10;6.50;;;21.00;78.00;;;;;;6242922;23;20368;-51
2022/08/24 06:41:09;;;;;;;8.73;6.20;;;21.10;77.50;;;;;;6244821;23;20425;-53
2022/08/24 06:43:36;;;;;;;8.47;6.40;;;21.20;77.00;;;;;;6244254;23;20348;-51
2022/08/24 06:46:02;;;;;;;10.53;6.13;;;21.30;76.60;;;;;;6245186;23;20387;-52
2022/08/24 06:48:29;;;;;;;7.40;6.67;;;21.40;76.20;;;;;;6243149;23;20348;-52
2022/08/24 06:50:55;;;;;;;7.50;6.90;;;21.40;75.60;;;;;;6245636;23;20392;-51
2022/08/24 06:53:21;;;;;;;8.80;6.67;;;21.50;75.60;;;;;;6244546;23;20402;-53
2022/08/24 06:55:52;;;;;;;7.30;6.60;;;21.60;75.40;;;;;;6243742;23;20557;-48
2022/08/24 06:58:18;;;;;;;7.00;6.00;;;21.60;74.40;;;;;;6217832;23;20149;-49
2022/08/24 07:00:45;;;;;;;9.30;6.97;;;21.80;74.40;;;;;;6245145;23;20437;-51
2022/08/24 07:03:11;;;;;;;8.27;7.07;;;21.80;73.50;;;;;;6244813;23;20363;-51
2022/08/24 07:05:37;;;;;;;6.90;6.20;;;21.90;73.30;;;;;;6244312;23;20382;-50
2022/08/24 07:08:03;;;;;;;9.00;7.13;;;22.10;73.10;;;;;;6245710;23;20382;-50
2022/08/24 07:10:29;;;;;;;8.17;7.37;;;22.20;72.00;;;;;;6247835;23;20236;-49
2022/08/24 07:12:56;;;;;;;8.90;8.10;;;22.30;71.60;;;;;;6246292;23;20452;-51
2022/08/24 07:15:22;;;;;;;8.30;7.40;;;22.50;71.60;;;;;;6247575;23;20390;-53
2022/08/24 07:17:48;;;;;;;11.40;6.87;;;22.60;70.90;;;;;;6246369;23;20364;-51
2022/08/24 07:20:16;;;;;;;7.10;5.77;;;22.80;70.40;;;;;;6246418;23;20387;-50
2022/08/24 07:22:43;;;;;;;6.37;5.27;;;23.10;70.30;;;;;;6246525;23;20360;-53
2022/08/24 07:25:11;;;;;;;8.37;6.07;;;23.40;69.30;;;;;;6247929;23;20796;-52
2022/08/24 07:27:37;;;;;;;8.70;6.77;;;23.70;67.80;;;;;;6219402;23;20767;-50
2022/08/24 07:30:03;;;;;;;7.60;6.60;;;23.90;66.00;;;;;;6246226;23;20431;-48
2022/08/24 07:32:29;;;;;;;6.80;6.10;;;24.10;64.80;;;;;;6246507;23;20422;-53
2022/08/24 07:34:55;;;;;;;7.60;6.07;;;24.30;64.10;;;;;;6220228;23;20877;-54
2022/08/24 07:37:20;;;;;;;6.63;6.03;;;24.50;61.20;;;;;;6246261;23;20149;-52
2022/08/24 07:39:46;;;;;;;7.30;5.60;;;24.60;61.00;;;;;;6246250;23;20241;-50
2022/08/24 07:42:12;;;;;;;6.13;5.53;;;24.80;60.60;;;;;;6246148;23;20169;-50
2022/08/24 07:44:38;;;;;;;8.37;6.00;;;25.00;59.70;;;;;;6244941;23;20480;-50
2022/08/24 07:47:04;;;;;;;8.00;5.90;;;25.20;59.20;;;;;;6245957;23;20396;-52
2022/08/24 07:49:29;;;;;;;6.30;5.70;;;25.40;58.60;;;;;;6244280;23;20289;-53
2022/08/24 07:51:56;;;;;;;6.10;5.57;;;25.50;57.90;;;;;;6245714;23;20524;-54
2022/08/24 07:54:21;;;;;;;9.00;5.50;;;25.60;57.70;;;;;;6244035;23;20356;-54
2022/08/24 07:56:49;;;;;;;5.90;5.40;;;25.80;57.50;;;;;;6244830;23;20361;-51
2022/08/24 07:59:16;;;;;;;7.17;6.37;;;26.00;56.60;;;;;;6243080;23;20224;-52
2022/08/24 08:01:41;;;;;;;6.67;5.97;;;26.30;56.20;;;;;;6241086;23;20444;-48
2022/08/24 08:04:08;;;;;;;6.57;5.67;;;26.50;55.70;;;;;;6243804;23;20413;-50
2022/08/24 08:06:34;;;;;;;5.80;5.17;;;26.60;55.40;;;;;;6243031;23;20545;-48
2022/08/24 08:09:01;;;;;;;9.60;5.30;;;26.70;55.10;;;;;;6242821;23;20400;-50
2022/08/24 08:11:27;;;;;;;6.63;5.00;;;26.90;54.90;;;;;;6244147;22;20161;-51
2022/08/24 08:13:53;;;;;;;6.57;5.43;;;27.20;55.00;;;;;;6245420;23;20448;-51
2022/08/24 08:16:20;;;;;;;5.20;4.70;;;27.50;53.30;;;;;;6244051;23;20150;-46
2022/08/24 08:18:45;;;;;;;5.00;4.60;;;27.80;52.00;;;;;;6243580;23;20532;-44
2022/08/24 08:24:13;;;;;;;4.00;3.53;;;28.60;50.70;;;;;;6242429;23;20140;-46
2022/08/24 08:26:40;;;;;;;6.47;4.33;;;29.00;48.80;;;;;;6241351;23;20401;-46
2022/08/24 08:29:07;;;;;;;5.70;4.83;;;29.30;47.60;;;;;;6216040;23;20626;-43
2022/08/24 08:31:33;;;;;;;4.40;4.00;;;29.50;47.00;;;;;;6241145;23;20583;-44
2022/08/24 08:33:58;;;;;;;5.87;5.00;;;29.70;46.50;;;;;;6242247;23;20440;-47
2022/08/24 08:36:25;;;;;;;5.63;3.90;;;29.90;45.80;;;;;;6245085;22;20807;-49
2022/08/24 08:38:51;;;;;;;4.20;3.80;;;30.10;45.70;;;;;;6246290;23;20352;-44
2022/08/24 08:41:36;;;;;;;4.23;3.83;;;30.40;45.20;;;;;;6243876;23;20162;-48
2022/08/24 08:44:23;;;;;;;6.57;4.27;;;30.50;44.90;;;;;;6244862;23;20142;-46
2022/08/24 08:47:22;;;;;;;6.00;3.77;;;30.70;44.20;;;;;;6246439;23;20401;-47
2022/08/24 08:50:41;;;;;;;9.40;3.80;;;30.90;42.60;;;;;;6246448;23;20449;-45
2022/08/24 08:53:44;;;;;;;5.20;4.20;;;31.10;42.30;;;;;;6152570;23;20436;-43
2022/08/24 08:56:28;;;;;;;4.50;4.10;;;31.20;42.10;;;;;;6151460;23;20390;-45
2022/08/24 08:59:00;;;;;;;6.20;4.30;;;31.30;41.80;;;;;;6240499;22;20359;-45
2022/08/24 09:01:47;;;;;;;5.13;4.40;;;31.40;41.70;;;;;;6242512;23;20485;-45
2022/08/24 09:04:19;;;;;;;8.97;4.93;;;31.60;42.20;;;;;;6248245;23;20435;-47
2022/08/24 09:07:04;;;;;;;6.43;4.33;;;31.40;41.00;;;;;;6248619;23;20351;-45
2022/08/24 09:09:43;;;;;;;4.03;3.60;;;31.40;41.70;;;;;;6246330;23;20365;-44
2022/08/24 09:12:19;;;;;;;6.10;3.67;;;31.50;41.30;;;;;;6245765;23;20388;-45
2022/08/24 09:15:05;;;;;;;4.40;4.10;;;31.70;40.30;;;;;;6244664;23;20339;-42
2022/08/24 09:18:10;;;;;;;3.97;3.40;;;32.00;40.20;;;;;;6244540;23;20908;-44
2022/08/24 09:21:01;;;;;;;4.47;4.07;;;31.90;38.80;;;;;;6241418;23;20402;-43
2022/08/24 09:24:03;;;;;;;4.10;3.70;;;32.00;39.60;;;;;;6235135;23;20397;-44
2022/08/24 09:26:34;;;;;;;3.63;3.33;;;32.40;39.50;;;;;;6246099;23;20842;-46
2022/08/24 09:29:16;;;;;;;4.53;3.80;;;32.70;39.20;;;;;;6245263;23;20430;-43
2022/08/24 09:31:53;;;;;;;4.27;3.33;;;33.00;38.40;;;;;;6247367;23;20389;-43
2022/08/24 09:34:25;;;;;;;3.93;3.33;;;33.40;37.60;;;;;;6245517;23;20417;-44
2022/08/24 09:37:18;;;;;;;4.10;3.80;;;33.80;37.60;;;;;;6246259;23;20794;-45
2022/08/24 09:39:58;;;;;;;5.00;3.40;;;33.70;35.20;;;;;;6243873;23;20752;-44
2022/08/24 09:42:41;;;;;;;3.27;2.97;;;33.30;36.00;;;;;;6246028;23;20451;-44
2022/08/24 09:45:32;;;;;;;5.50;3.13;;;33.30;36.00;;;;;;6243490;22;20336;-44
2022/08/24 09:48:09;;;;;;;3.37;3.03;;;33.30;35.60;;;;;;6243050;23;20694;-44
2022/08/24 09:50:54;;;;;;;3.67;2.80;;;33.30;35.50;;;;;;6241471;23;20383;-44
2022/08/24 09:53:59;;;;;;;3.43;3.13;;;33.60;35.60;;;;;;6243311;23;20379;-43
2022/08/24 09:56:48;;;;;;;3.70;3.00;;;33.90;33.80;;;;;;6242727;23;20617;-44
2022/08/24 09:59:32;;;;;;;3.97;3.37;;;33.60;34.40;;;;;;6244692;23;20324;-44
2022/08/24 10:02:26;;;;;;;3.67;2.83;;;33.40;34.20;;;;;;6247060;23;20396;-45
2022/08/24 10:05:02;;;;;;;3.97;2.80;;;33.40;33.90;;;;;;6247408;23;20362;-46
2022/08/24 10:07:51;;;;;;;4.93;3.17;;;33.50;34.60;;;;;;6244982;23;20423;-45
2022/08/24 10:10:23;;;;;;;3.20;2.90;;;34.00;34.40;;;;;;6243866;23;20643;-46
2022/08/24 10:13:17;;;;;;;4.90;3.20;;;34.40;33.20;;;;;;6245741;23;20350;-45
2022/08/24 10:16:14;;;;;;;4.50;2.77;;;34.90;33.30;;;;;;6243624;23;20819;-44
2022/08/24 10:19:00;;;;;;;2.70;2.50;;;35.20;32.30;;;;;;6242662;23;20357;-45
2022/08/24 10:21:38;;;;;;;4.13;2.60;;;35.70;31.80;;;;;;6242404;23;20490;-47
2022/08/24 10:24:22;;;;;;;3.20;2.90;;;36.10;31.70;;;;;;6242374;23;20444;-45
2022/08/24 10:27:10;;;;;;;2.80;2.60;;;36.70;31.10;;;;;;6245263;23;20510;-47
2022/08/24 10:29:41;;;;;;;3.97;2.80;;;37.10;30.10;;;;;;6246301;23;20359;-44
2022/08/24 10:32:36;;;;;;;5.50;3.00;;;37.60;30.50;;;;;;6242415;23;20684;-44
2022/08/24 10:35:37;;;;;;;3.67;3.33;;;37.80;30.60;;;;;;6244222;23;20771;-46
2022/08/24 10:41:36;;;;;;;2.70;2.50;;;37.70;29.70;;;;;;6246048;23;20417;-47
2022/08/24 10:44:21;;;;;;;3.30;2.90;;;37.50;30.20;;;;;;6244476;23;20363;-44
2022/08/24 10:46:59;;;;;;;4.60;3.07;;;37.50;30.20;;;;;;6243943;23;20464;-44
2022/08/24 10:49:34;;;;;;;3.57;3.27;;;37.70;30.60;;;;;;6243790;23;20722;-44
2022/08/24 10:52:23;;;;;;;3.03;2.83;;;37.90;30.00;;;;;;6245373;23;20468;-44
2022/08/24 10:54:49;;;;;;;3.03;2.73;;;38.00;30.10;;;;;;6245539;23;20631;-47
2022/08/24 10:57:15;;;;;;;3.33;3.03;;;38.20;29.90;;;;;;6221522;23;20405;-44
2022/08/24 11:00:21;;;;;;;3.80;3.30;;;38.20;30.00;;;;;;6245210;23;20354;-44
2022/08/24 11:02:48;;;;;;;3.33;3.03;;;38.50;30.20;;;;;;6218881;23;20184;-46
2022/08/24 11:05:17;;;;;;;3.40;3.10;;;38.90;29.80;;;;;;6243187;23;20671;-45
2022/08/24 11:08:25;;;;;;;3.40;3.10;;;39.10;29.30;;;;;;6220930;23;20673;-45
2022/08/24 11:11:12;;;;;;;3.20;3.00;;;39.30;29.30;;;;;;6205166;23;20363;-47
2022/08/24 11:13:53;;;;;;;4.17;3.47;;;39.40;28.90;;;;;;6247077;22;20391;-45
2022/08/24 11:16:26;;;;;;;4.27;2.90;;;39.40;29.00;;;;;;6246326;23;20375;-46
2022/08/24 11:18:57;;;;;;;2.90;2.70;;;39.70;29.30;;;;;;6247588;23;20360;-43
2022/08/24 11:21:45;;;;;;;3.47;3.17;;;39.80;29.20;;;;;;6220083;23;20450;-44
2022/08/24 11:24:42;;;;;;;3.53;3.23;;;39.70;28.60;;;;;;6247911;23;20356;-45
2022/08/24 11:27:34;;;;;;;3.03;2.80;;;39.20;28.60;;;;;;6207345;22;20384;-46
2022/08/24 11:30:34;;;;;;;3.47;3.17;;;39.20;28.70;;;;;;6205140;23;20402;-44
2022/08/24 11:33:02;;;;;;;2.80;2.60;;;39.20;28.60;;;;;;6218663;23;20371;-45
2022/08/24 11:35:34;;;;;;;3.20;3.00;;;39.00;29.20;;;;;;6220212;23;20471;-47
2022/08/24 11:38:27;;;;;;;3.40;3.10;;;39.00;29.20;;;;;;6248540;22;20406;-47
2022/08/24 11:41:30;;;;;;;5.97;2.93;;;39.30;29.40;;;;;;6219366;23;20427;-44
2022/08/24 11:44:23;;;;;;;3.40;3.10;;;39.70;29.20;;;;;;6181802;23;20488;-44
2022/08/24 11:47:41;;;;;;;3.73;3.43;;;39.90;28.90;;;;;;6245308;23;20749;-49
2022/08/24 11:50:52;;;;;;;3.30;2.97;;;40.50;28.90;;;;;;6246783;23;20726;-46
2022/08/24 11:53:46;;;;;;;2.90;2.70;;;40.80;28.40;;;;;;6242429;23;20401;-45
2022/08/24 11:56:19;;;;;;;3.57;3.17;;;41.00;28.20;;;;;;6247357;23;20356;-43
2022/08/24 11:58:51;;;;;;;3.57;3.30;;;41.30;27.80;;;;;;6248082;23;20621;-45
2022/08/24 12:01:32;;;;;;;3.07;2.87;;;41.40;27.70;;;;;;6246729;22;20412;-44
2022/08/24 12:04:19;;;;;;;3.50;3.20;;;41.20;27.90;;;;;;6244977;23;20365;-47
2022/08/24 12:06:54;;;;;;;3.97;3.57;;;41.20;27.60;;;;;;6245031;23;20392;-45
2022/08/24 12:09:57;;;;;;;2.80;2.60;;;40.90;27.70;;;;;;6246471;23;20356;-45
2022/08/24 12:12:43;;;;;;;3.00;2.80;;;40.50;28.20;;;;;;6245986;23;20395;-44
2022/08/24 12:15:35;;;;;;;2.80;2.60;;;40.40;28.30;;;;;;6245126;23;20679;-46
2022/08/24 12:18:08;;;;;;;2.83;2.63;;;40.70;28.00;;;;;;6244964;23;20392;-45
2022/08/24 12:20:35;;;;;;;2.93;2.73;;;40.80;27.70;;;;;;6243578;23;20348;-44
2022/08/24 12:23:19;;;;;;;2.80;2.60;;;41.20;27.60;;;;;;6244872;23;20377;-44
2022/08/24 12:26:03;;;;;;;2.73;2.17;;;41.50;27.10;;;;;;6220322;23;20370;-44
2022/08/24 12:28:39;;;;;;;4.03;2.43;;;41.80;27.00;;;;;;6246815;23;20636;-45
2022/08/24 12:31:31;;;;;;;6.73;3.77;;;42.00;26.40;;;;;;6245126;23;20620;-46
2022/08/24 12:34:00;;;;;;;2.60;2.40;;;41.50;26.30;;;;;;6233731;23;20432;-45
2022/08/24 12:36:47;;;;;;;8.17;4.07;;;41.50;25.80;;;;;;6219697;23;20401;-46
2022/08/24 12:39:18;;;;;;;2.50;2.30;;;41.10;26.50;;;;;;6246347;23;20796;-47
2022/08/24 12:42:00;;;;;;;15.33;5.10;;;40.60;25.90;;;;;;6220025;23;20486;-44
2022/08/24 12:44:36;;;;;;;18.03;5.93;;;40.10;26.90;;;;;;6243962;23;20701;-45
2022/08/24 12:47:02;;;;;;;14.53;4.87;;;40.10;26.90;;;;;;6245637;23;20390;-45
2022/08/24 12:49:35;;;;;;;3.00;2.40;;;40.40;27.30;;;;;;6218608;23;20728;-43
2022/08/24 12:52:19;;;;;;;82.07;15.87;;;40.80;27.00;;;;;;6243104;23;20134;-46
2022/08/24 12:55:35;;;;;;;71.30;13.33;;;41.40;26.60;;;;;;6244817;23;20430;-46
2022/08/24 12:58:04;;;;;;;3.07;2.77;;;41.90;26.20;;;;;;6208007;23;20412;-45
2022/08/24 13:00:39;;;;;;;30.33;7.80;;;42.20;25.50;;;;;;6246723;23;20369;-44
2022/08/24 13:03:07;;;;;;;6.37;3.20;;;41.70;25.60;;;;;;6221099;23;20405;-46
2022/08/24 13:05:47;;;;;;;8.23;3.40;;;41.10;25.90;;;;;;6220455;23;20389;-45
2022/08/24 13:08:38;;;;;;;4.27;3.00;;;40.70;26.20;;;;;;6247112;23;20679;-44
2022/08/24 13:11:15;;;;;;;37.30;9.63;;;39.90;26.80;;;;;;6217985;23;20454;-46
2022/08/24 13:13:46;;;;;;;43.13;8.40;;;39.70;27.40;;;;;;6244302;23;20444;-44
2022/08/24 13:16:46;;;;;;;68.50;13.67;;;40.00;27.40;;;;;;6243678;23;20507;-44
2022/08/24 13:19:30;;;;;;;2.20;2.00;;;40.50;27.00;;;;;;6218760;23;20458;-47
2022/08/24 13:22:00;;;;;;;60.10;13.00;;;40.90;25.70;;;;;;6243554;23;20410;-45
2022/08/24 13:24:29;;;;;;;16.67;4.60;;;41.00;26.40;;;;;;6243055;23;20416;-46
2022/08/24 13:27:18;;;;;;;2.90;2.00;;;41.30;26.50;;;;;;6242597;23;20357;-47